Flight Track Log - Related Links

Times and Time Zones

All times are in EDT time to prevent confusion due to time zone crossing. See the DAL268 flight status page for this flight to view local times or setup timezone preferences in your user account.

Time Position Orientation Groundspeed Altitude Reporting Facility
EDT Latitude Longitude Course Direction KTS MPH feet Rate Location/Type
Mon 12:23:24 AM 40.6350 -73.7800 North  Level FlightAware
Mon 12:29:08 AM 40.6360 -73.7790 37° Northeast 2 2 40 Level FlightAware
Mon 12:31:00 AM 40.8465 -73.5869 37° Northeast  Level FlightAware
Mon 12:32:00 AM 40.9573 -73.4854 56° Northeast  Level FlightAware
Mon 12:33:00 AM 41.0717 -73.3851 30° Northeast  Level FlightAware
Mon 12:34:00 AM 41.1959 -73.2875 37° Northeast  Level FlightAware
Mon 12:34:19 AM 40.6350 -73.7790 37° Northeast 2 2  Level FlightAware
Mon 12:36:00 AM 40.8087 -73.6080 37° Northeast  Level FlightAware
Mon 12:37:00 AM 40.9279 -73.5054 37° Northeast  Level FlightAware
Mon 12:38:00 AM 41.0457 -73.4053 30° Northeast  Level FlightAware
Mon 12:39:00 AM 41.1718 -73.3115 37° Northeast  Level FlightAware
Mon 12:40:00 AM 41.2916 -73.2042 48° Northeast  Level FlightAware
Mon 12:40:11 AM 40.6340 -73.7790 48° Northeast 19 22  Level FlightAware
Mon 12:40:39 AM 40.6340 -73.7800 270° West 23 26 154 Level FlightAware
Mon 12:40:53 AM 40.6330 -73.7800 180° South 24 28 168 Level FlightAware
Mon 12:41:23 AM 40.6320 -73.7790 143° Southeast 28 32 175 Level FlightAware
Mon 12:41:34 AM 40.6320 -73.7780 90° East 31 36 194 Level FlightAware
Mon 12:41:52 AM 40.6310 -73.7770 143° Southeast 28 32 202 Level FlightAware
Mon 12:42:00 AM 40.6310 -73.7760 90° East 29 33 217 Level FlightAware
Mon 12:42:33 AM 40.6300 -73.7740 123° Southeast 27 31 224 Level FlightAware
Mon 12:42:59 AM 40.6290 -73.7730 143° Southeast 19 22 260 Level FlightAware
Mon 12:43:25 AM 40.6290 -73.7720 90° East 16 18 297 Level FlightAware
Mon 12:43:54 AM 40.6280 -73.7730 217° Southwest 23 26 346 Level FlightAware
Mon 12:44:22 AM 40.6270 -73.7740 217° Southwest 18 21 425 Level FlightAware
Mon 12:44:51 AM 40.6280 -73.7760 303° West 41 47 545 Level FlightAware
Mon 12:45:07 AM 40.6310 -73.7830 299° West 100 115 771 Level FlightAware
Mon 12:45:33 AM 40.6400 -73.8020 302° West 175 201 1,000 Level FlightAware
Mon 12:46:01 AM 40.6500 -73.8300 295° West 178 205 900 1,607 Climbing FlightAware
Mon 12:46:29 AM 40.6430 -73.8590 252° West 200 230 1,500 1,220 Climbing FlightAware
Mon 12:47:00 AM 40.6210 -73.8860 223° Southwest 227 261 2,100 977 Climbing FlightAware
Mon 12:47:12 AM 40.6080 -73.8950 208° Southwest 249 287 2,200 500 Climbing FlightAware
Mon 12:47:24 AM 40.5940 -73.8980 189° South 271 312 2,300 1,227 Climbing FlightAware
Mon 12:47:56 AM 40.5570 -73.8790 159° South 294 338 3,100 1,814 Climbing FlightAware
Mon 12:48:07 AM 40.5440 -73.8630 137° Southeast 300 345 3,600 2,571 Climbing FlightAware
Mon 12:48:24 AM 40.5315 -73.8360 121° Southeast 301 346 4,300 2,538 Climbing FlightAware
Mon 12:48:33 AM 40.5276 -73.8204 108° East 301 346 4,700 2,571 Climbing FlightAware
Mon 12:48:38 AM 40.5261 -73.8114 102° East 303 349 4,900 2,667 Climbing FlightAware
Mon 12:48:42 AM 40.5253 -73.8049 99° East 304 350 5,100 2,182 Climbing FlightAware
Mon 12:48:49 AM 40.5244 -73.7912 95° East 308 354 5,300 2,182 Climbing FlightAware
Mon 12:49:04 AM 40.5243 -73.7624 90° East 312 359 5,900 2,667 Climbing FlightAware
Mon 12:49:16 AM 40.5251 -73.7394 87° East 314 361 6,500 2,526 Climbing FlightAware
Mon 12:49:23 AM 40.5262 -73.7269 83° East 317 365 6,700 1,500 Climbing FlightAware
Mon 12:49:28 AM 40.5279 -73.7173 77° East 321 369 6,800 1,800 Climbing FlightAware
Mon 12:49:33 AM 40.5301 -73.7082 72° East 322 371 7,000 2,000 Climbing FlightAware
Mon 12:49:37 AM 40.5325 -73.7011 66° East 321 369 7,100 2,250 Climbing FlightAware
Mon 12:49:41 AM 40.5352 -73.6942 63° Northeast 320 368 7,300 2,667 Climbing FlightAware
Mon 12:49:46 AM 40.5393 -73.6859 57° Northeast 319 367 7,500 2,667 Climbing FlightAware
Mon 12:49:50 AM 40.5430 -73.6801 50° Northeast 319 367 7,700 2,250 Climbing FlightAware
Mon 12:49:54 AM 40.5474 -73.6744 45° Northeast 319 367 7,800 2,000 Climbing FlightAware
Mon 12:49:59 AM 40.5530 -73.6684 39° Northeast 320 368 8,000 2,000 Climbing FlightAware
Mon 12:50:03 AM 40.5581 -73.6641 33° Northeast 320 368 8,100 2,250 Climbing FlightAware
Mon 12:50:07 AM 40.5636 -73.6601 29° Northeast 322 371 8,300 2,400 Climbing FlightAware
Mon 12:50:23 AM 40.5852 -73.6483 23° Northeast 321 369 8,900 2,710 Climbing FlightAware
Mon 12:50:38 AM 40.6060 -73.6363 24° Northeast 320 368 9,700 2,478 Climbing FlightAware
Mon 12:51:09 AM 40.6478 -73.6097 26° Northeast 332 382 10,800 2,164 Climbing FlightAware
Mon 12:51:39 AM 40.6908 -73.5820 26° Northeast 339 390 11,900 2,164 Climbing FlightAware
Mon 12:52:10 AM 40.7348 -73.5535 26° Northeast 346 398 13,000 2,129 Climbing FlightAware
Mon 12:52:41 AM 40.7799 -73.5261 25° Northeast 349 402 14,100 1,680 Climbing FlightAware
Mon 12:53:25 AM 40.8475 -73.4835 25° Northeast 361 415 15,100 1,213 Climbing FlightAware
Mon 12:54:10 AM 40.9223 -73.4354 26° Northeast 418 481 15,900 1,031 Climbing FlightAware
Mon 12:54:29 AM 40.9559 -73.4140 26° Northeast 431 496 16,200 1,235 Climbing FlightAware
Mon 12:54:44 AM 40.9828 -73.3935 30° Northeast 442 509 16,600 1,615 Climbing FlightAware
Mon 12:54:55 AM 41.0018 -73.3751 36° Northeast 448 516 16,900 1,622 Climbing FlightAware
Mon 12:55:21 AM 41.0404 -73.3239 45° Northeast 461 531 17,600 1,683 Climbing FlightAware
Mon 12:56:17 AM 41.1120 -73.1950 54° Northeast 476 548 19,200 1,680 Climbing FlightAware
Mon 12:57:01 AM 41.1691 -73.0902 54° Northeast 486 559 20,400 1,518 Climbing FlightAware
Mon 12:57:40 AM 41.2200 -72.9970 54° Northeast 495 570 21,300 1,429 Climbing FlightAware
Mon 12:58:25 AM 41.2840 -72.8840 53° Northeast 505 581 22,400 1,256 Climbing FlightAware
Mon 12:59:06 AM 41.3430 -72.7850 52° Northeast 517 595 23,100 795 Climbing FlightAware
Mon 12:59:48 AM 41.3990 -72.6900 52° Northeast 520 598 23,500 308 Climbing FlightAware
Mon 01:00:24 AM 41.4450 -72.6120 52° Northeast 520 598 23,500 1,444 Level FlightAware
Mon 01:01:11 AM 41.4890 -72.5350 53° Northeast 25,700 2,167 Climbing FlightAware
Mon 01:01:36 AM 41.5640 -72.4050 52° Northeast 548 631 26,100 1,037 Climbing FlightAware
Mon 01:02:32 AM 41.6540 -72.2480 52° Northeast 562 647 27,100 1,059 Climbing FlightAware
Mon 01:03:18 AM 41.7270 -72.1190 53° Northeast 570 656 27,900 977 Climbing FlightAware
Mon 01:03:58 AM 41.7960 -71.9980 53° Northeast 578 665 28,500 988 Climbing FlightAware
Mon 01:04:43 AM 41.8610 -71.8830 53° Northeast 579 666 29,300 1,215 Climbing FlightAware
Mon 01:05:17 AM 41.9140 -71.7890 53° Northeast 577 664 30,100 1,229 Climbing FlightAware
Mon 01:06:06 AM 42.0000 -71.6360 53° Northeast 580 667 31,000 1,079 Climbing FlightAware
Mon 01:06:46 AM 42.0670 -71.5160 53° Northeast 581 669 31,700 988 Climbing FlightAware
Mon 01:07:31 AM 42.1380 -71.3880 53° Northeast 581 669 32,400 918 Climbing FlightAware
Mon 01:08:11 AM 42.2040 -71.2700 53° Northeast 581 669 33,000 444 Climbing FlightAware
Mon 01:08:52 AM 42.2710 -71.1490 53° Northeast 579 666 33,000  Level FlightAware
Mon 01:09:36 AM 42.3390 -71.0250 53° Northeast 577 664 33,000  Level FlightAware
Mon 01:10:16 AM 42.3990 -70.9160 53° Northeast 577 664 33,000  Level FlightAware
Mon 01:10:56 AM 42.4680 -70.7900 53° Northeast 577 664 33,000  Level FlightAware
Mon 01:11:48 AM 42.5510 -70.6370 54° Northeast 577 664 33,000  Level FlightAware
Mon 01:12:32 AM 42.6190 -70.5120 53° Northeast 581 669 33,000  Level FlightAware
Mon 01:13:16 AM 42.6890 -70.3800 54° Northeast 581 669 33,000  Level FlightAware
Mon 01:13:56 AM 42.7530 -70.2620 54° Northeast 583 671 33,000  Level FlightAware
Mon 01:14:38 AM 42.8200 -70.1370 54° Northeast 581 669 33,000  Level FlightAware
Mon 01:15:16 AM 42.8800 -70.0230 54° Northeast 586 674 33,000  Level FlightAware
Mon 01:15:56 AM 42.9370 -69.9150 54° Northeast 588 677 33,000  Level FlightAware
Mon 01:16:58 AM 43.0430 -69.7150 54° Northeast 593 682 33,000  Level FlightAware
Mon 01:17:42 AM 43.1110 -69.5850 54° Northeast 586 674 33,000  Level FlightAware
Mon 01:18:22 AM 43.1720 -69.4680 54° Northeast 590 679 33,000  Level FlightAware
Mon 01:19:07 AM 43.2390 -69.3390 54° Northeast 591 680 33,000  Level FlightAware
Mon 01:19:45 AM 43.3010 -69.2220 54° Northeast 591 680 33,000  Level FlightAware
Mon 01:20:25 AM 43.3640 -69.1000 55° Northeast 591 680 33,000  Level FlightAware
Mon 01:21:13 AM 43.4300 -68.9760 54° Northeast 591 680 33,000  Level FlightAware
Mon 01:21:49 AM 43.4790 -68.8830 54° Northeast 591 680 33,000  Level FlightAware
Mon 01:22:37 AM 43.5440 -68.7580 54° Northeast 591 680 33,000  Level FlightAware
Mon 01:23:13 AM 43.5930 -68.6650 54° Northeast 591 680 33,000  Level FlightAware
Mon 01:24:16 AM 43.6790 -68.5010 54° Northeast 591 680 33,000  Level FlightAware
Mon 01:24:53 AM 43.7300 -68.4050 54° Northeast 591 680 33,000  Level FlightAware
Mon 01:25:36 AM 43.8570 -68.1250 58° Northeast 591 680 33,000  Level FlightAware
Mon 01:26:15 AM 43.9190 -68.0010 55° Northeast 591 680 33,000  Level FlightAware
Mon 01:27:01 AM 43.9890 -67.8600 55° Northeast 587 676 33,000  Level FlightAware
Mon 01:27:42 AM 44.0520 -67.7320 56° Northeast 593 682 33,000  Level FlightAware
Mon 01:28:26 AM 44.1210 -67.5910 56° Northeast 588 677 33,000  Level FlightAware
Mon 01:29:07 AM 44.1840 -67.4640 55° Northeast 587 676 33,000  Level FlightAware
Mon 01:29:51 AM 44.2520 -67.3230 56° Northeast 587 676 33,000  Level FlightAware
Mon 01:30:32 AM 44.3140 -67.1950 56° Northeast 587 676 33,000  Level FlightAware
Mon 01:31:16 AM 44.3830 -67.0530 56° Northeast 588 677 33,000  Level FlightAware
Mon 01:31:57 AM 44.4420 -66.9270 57° Northeast 589 678 33,000  Level FlightAware
Mon 01:32:31 AM 44.4930 -66.8110 58° Northeast 595 685 33,000  Level FlightAware
Mon 01:33:22 AM 44.5680 -66.6400 58° Northeast 597 687 33,000  Level FlightAware
Mon 01:34:03 AM 44.6230 -66.5140 58° Northeast 591 680 33,000  Level FlightAware
Mon 01:34:41 AM 44.6810 -66.3840 58° Northeast 591 680 33,000  Level FlightAware
Mon 01:35:55 AM 44.7890 -66.1370 58° Northeast 594 684 33,000  Level FlightAware
Mon 01:36:35 AM 44.8460 -66.0060 58° Northeast 593 682 33,000  Level FlightAware
Mon 01:37:19 AM 44.9090 -65.8600 59° Northeast 593 682 33,000  Level FlightAware
Mon 01:37:58 AM 44.9650 -65.7290 59° Northeast 593 682 33,000  Level FlightAware
Mon 01:38:43 AM 45.0290 -65.5820 58° Northeast 593 682 33,000  Level FlightAware
Mon 01:39:23 AM 45.0850 -65.4480 59° Northeast 593 682 33,000  Level FlightAware
Mon 01:40:05 AM 45.1440 -65.3110 59° Northeast 591 680 33,000  Level FlightAware
Mon 01:40:49 AM 45.2070 -65.1620 59° Northeast 590 679 33,000  Level FlightAware
Mon 01:41:29 AM 45.2610 -65.0310 60° Northeast 590 679 33,000  Level FlightAware
Mon 01:42:09 AM 45.3170 -64.8970 59° Northeast 590 679 33,000  Level FlightAware
Mon 01:42:55 AM 45.3810 -64.7450 59° Northeast 588 677 33,000  Level FlightAware
Mon 01:43:35 AM 45.4360 -64.6110 60° Northeast 586 674 33,000  Level FlightAware
Mon 01:44:17 AM 45.4950 -64.4690 59° Northeast 587 676 33,000  Level FlightAware
Mon 01:45:13 AM 45.5700 -64.2840 60° Northeast 588 677 33,000  Level FlightAware
Mon 01:45:52 AM 45.6230 -64.1560 59° Northeast 589 678 33,000  Level FlightAware
Mon 01:46:51 AM 45.6990 -63.9710 59° Northeast 589 678 33,000  Level FlightAware
Mon 01:47:27 AM 45.7410 -63.8690 59° Northeast 589 678 33,000  Level FlightAware
Mon 01:48:15 AM 45.7990 -63.7320 59° Northeast 589 678 33,000  Level FlightAware
Mon 01:48:51 AM 45.8420 -63.6300 59° Northeast 589 678 33,000  Level FlightAware
Mon 01:49:39 AM 45.8990 -63.4930 59° Northeast 589 678 33,000  Level FlightAware
Mon 01:50:15 AM 45.9420 -63.3900 59° Northeast 589 678 33,000  Level FlightAware
Mon 01:51:03 AM 45.9990 -63.2530 59° Northeast 589 678 33,000  Level FlightAware
Mon 01:51:39 AM 46.0420 -63.1500 59° Northeast 589 678 33,000  Level FlightAware
Mon 01:52:27 AM 46.1540 -62.8160 64° Northeast 591 680 33,000  Level FlightAware
Mon 01:53:07 AM 46.2100 -62.6720 61° Northeast 592 681 33,000  Level FlightAware
Mon 01:53:52 AM 46.2710 -62.5130 61° Northeast 591 680 33,000  Level FlightAware
Mon 01:54:32 AM 46.3240 -62.3750 61° Northeast 589 678 33,000  Level FlightAware
Mon 01:55:16 AM 46.3820 -62.2210 61° Northeast 588 677 33,000  Level FlightAware
Mon 01:56:00 AM 46.4380 -62.0730 61° Northeast 587 676 33,000  Level FlightAware
Mon 01:56:40 AM 46.4910 -61.9330 61° Northeast 587 676 33,000  Level FlightAware
Mon 01:57:20 AM 46.5420 -61.7950 62° Northeast 587 676 33,000  Level FlightAware
Mon 01:58:05 AM 46.6000 -61.6400 61° Northeast 587 676 33,000  Level FlightAware
Mon 01:58:46 AM 46.6540 -61.4930 62° Northeast 586 674 33,000  Level FlightAware
Mon 01:59:28 AM 46.7060 -61.3510 62° Northeast 586 674 33,000  Level FlightAware
Mon 02:00:12 AM 46.7630 -61.1960 62° Northeast 587 676 33,000  Level FlightAware
Mon 02:00:50 AM 46.8120 -61.0620 62° Northeast 588 677 33,000  Level FlightAware
Mon 02:01:32 AM 46.8650 -60.9140 62° Northeast 588 677 33,000  Level FlightAware
Mon 02:02:16 AM 46.9200 -60.7610 62° Northeast 589 678 33,000  Level FlightAware
Mon 02:02:56 AM 46.9710 -60.6200 62° Northeast 588 677 33,000  Level FlightAware
Mon 02:03:40 AM 47.0250 -60.4680 62° Northeast 587 676 33,000  Level FlightAware
Mon 02:04:22 AM 47.0760 -60.3230 63° Northeast 584 672 33,000  Level FlightAware
Mon 02:05:02 AM 47.1280 -60.1760 62° Northeast 582 670 33,000  Level FlightAware
Mon 02:05:46 AM 47.1820 -60.0220 63° Northeast 580 667 33,000  Level FlightAware
Mon 02:06:36 AM 47.2410 -59.8530 63° Northeast 577 664 33,000  Level FlightAware
Mon 02:07:20 AM 47.2960 -59.6920 63° Northeast 576 663 33,000  Level FlightAware
Mon 02:08:04 AM 47.3400 -59.5650 63° Northeast 576 663 33,000  Level FlightAware
Mon 02:08:52 AM 47.3890 -59.4220 63° Northeast 576 663 33,000  Level FlightAware
Mon 02:09:29 AM 47.4270 -59.3120 63° Northeast 576 663 33,000  Level FlightAware
Mon 02:10:08 AM 47.4680 -59.1950 63° Northeast 576 663 33,000  Level FlightAware
Mon 02:10:57 AM 47.5180 -59.0490 63° Northeast 576 663 33,000  Level FlightAware
Mon 02:11:52 AM 47.5740 -58.8840 63° Northeast 576 663 33,000  Level FlightAware
Mon 02:12:28 AM 47.6110 -58.7770 63° Northeast 576 663 33,000  Level FlightAware
Mon 02:13:16 AM 47.6610 -58.6330 63° Northeast 576 663 33,000  Level FlightAware
Mon 02:13:52 AM 47.6980 -58.5250 63° Northeast 576 663 33,000  Level FlightAware
Mon 02:14:39 AM 47.7460 -58.3840 63° Northeast 576 663 33,000  Level FlightAware
Mon 02:15:13 AM 47.7810 -58.2820 63° Northeast 576 663 33,000 1,429 Level FlightAware
Mon 02:16:03 AM 47.9120 -57.8360 66° East 582 670 35,000 1,364 Climbing FlightAware
Mon 02:16:41 AM 47.9550 -57.7030 64° Northeast 582 670 35,000  Level FlightAware
Mon 02:17:29 AM 48.0110 -57.5220 65° Northeast 581 669 35,000  Level FlightAware
Mon 02:18:07 AM 48.0520 -57.3880 65° Northeast 578 665 35,000  Level FlightAware
Mon 02:18:49 AM 48.0990 -57.2320 66° East 576 663 35,000  Level FlightAware
Mon 02:19:27 AM 48.1380 -57.1030 66° East 577 664 35,000  Level FlightAware
Mon 02:20:13 AM 48.1910 -56.9290 65° Northeast 578 665 35,000  Level FlightAware
Mon 02:20:55 AM 48.2380 -56.7730 66° East 580 667 35,000  Level FlightAware
Mon 02:21:33 AM 48.2750 -56.6510 65° Northeast 581 669 35,000  Level FlightAware
Mon 02:22:38 AM 48.3440 -56.4170 66° East 583 671 35,000  Level FlightAware
Mon 02:23:14 AM 48.3770 -56.3030 66° East 583 671 35,000  Level FlightAware
Mon 02:24:11 AM 48.4480 -56.0620 66° East 588 677 35,000  Level FlightAware
Mon 02:25:07 AM 48.5110 -55.8430 66° East 588 677 35,000  Level FlightAware
Mon 02:25:48 AM 48.5550 -55.6880 67° East 586 674 35,000  Level FlightAware
Mon 02:26:31 AM 48.5980 -55.5410 66° East 586 674 35,000  Level FlightAware
Mon 02:27:28 AM 48.6560 -55.3360 67° East 586 674 35,000  Level FlightAware
Mon 02:28:14 AM 48.6990 -55.1890 66° East 586 674 35,000  Level FlightAware
Mon 02:28:51 AM 48.7340 -55.0710 66° East 586 674 35,000  Level FlightAware
Mon 02:30:04 AM 48.8020 -54.8380 66° East 586 674 35,000  Level FlightAware
Mon 02:30:42 AM 48.8380 -54.7160 66° East 586 674 35,000  Level FlightAware
Mon 02:31:19 AM 48.8720 -54.5980 66° East 586 674 35,000  Level FlightAware
Mon 02:32:08 AM 48.9180 -54.4410 66° East 586 674 35,000  Level FlightAware
Mon 02:32:44 AM 48.9520 -54.3260 66° East 586 674 35,000  Level FlightAware
Mon 02:33:32 AM 48.9970 -54.1720 66° East 586 674 35,000  Level FlightAware
Mon 02:34:14 AM 49.0810 -53.7710 72° East 583 671 35,000  Level FlightAware
Mon 02:34:53 AM 49.1200 -53.6210 68° East 583 671 35,000  Level FlightAware
Mon 02:35:37 AM 49.1640 -53.4500 68° East 584 672 35,000  Level FlightAware
Mon 02:36:22 AM 49.2090 -53.2790 68° East 585 673 35,000  Level FlightAware
Mon 02:37:03 AM 49.2490 -53.1220 69° East 587 676 35,000  Level FlightAware
Mon 02:37:45 AM 49.2910 -52.9580 69° East 586 674 35,000  Level FlightAware
Mon 02:38:21 AM 49.3250 -52.8210 69° East 587 676 35,000  Level FlightAware
Mon 02:39:03 AM 49.3630 -52.6740 68° East 587 676 35,000  Level FlightAware
Mon 02:39:47 AM 49.4090 -52.4880 69° East 588 677 35,000  Level FlightAware
Mon 02:40:47 AM 49.4640 -52.2650 69° East 588 677 35,000  Level FlightAware
Mon 02:41:23 AM 49.4940 -52.1450 69° East 588 677 35,000  Level FlightAware
Mon 02:42:09 AM 49.5460 -51.9290 70° East 590 679 35,000  Level FlightAware
Mon 02:42:53 AM 49.5890 -51.7520 69° East 589 678 35,000  Level FlightAware
Mon 02:43:35 AM 49.6240 -51.6110 69° East 589 678 35,000  Level FlightAware
Mon 02:44:11 AM 49.6540 -51.4910 69° East 589 678 35,000  Level FlightAware
Mon 02:45:00 AM 49.6940 -51.3270 69° East 589 678 35,000  Level FlightAware
Mon 02:45:34 AM 49.7220 -51.2130 69° East 589 678 35,000  Level FlightAware
Mon 02:46:22 AM 49.7620 -51.0530 69° East 589 678 35,000  Level FlightAware
Mon 02:46:59 AM 49.7930 -50.9290 69° East 589 678 35,000  Level FlightAware
Mon 02:47:47 AM 49.8330 -50.7680 69° East 589 678 35,000  Level FlightAware
Mon 02:48:23 AM 49.8630 -50.6470 69° East 589 678 35,000  Level FlightAware
Mon 02:49:10 AM 49.9020 -50.4890 69° East 589 678 35,000  Level FlightAware
Mon 02:49:46 AM 49.9310 -50.3690 69° East 589 678 35,000  Level FlightAware
Mon 02:50:34 AM 49.9710 -50.2070 69° East 589 678 35,000  Level FlightAware
Mon 02:51:10 AM 50.0010 -50.0860 69° East 589 678 35,000  Level FlightAware
Mon 02:51:56 AM 50.0390 -49.9310 69° East 589 678 35,000  Level FlightAware
Mon 02:52:42 AM 50.0770 -49.7760 69° East 589 678 35,000 -1,905 Level FlightAware
Mon 02:52:59 AM 50.0000 -50.0000 77° East 609 701 33,000 -2,264 Descending ETMS Enhanced
Mon 02:53:35 AM 50.1000 -49.0500 77° East 600 690 33,000  Level Gander Center
Mon 02:54:03 AM 50.1167 -48.9667 73° East 600 690 33,000  Level Gander Center
Mon 02:55:03 AM 50.1500 -48.6833 79° East 600 690 33,000  Level Gander Center
Mon 02:56:35 AM 50.2167 -48.3000 75° East 610 702 33,000  Level Gander Center
Mon 02:57:03 AM 50.2333 -48.1667 79° East 610 702 33,000  Level Gander Center
Mon 02:57:35 AM 50.2333 -48.0667 90° East 610 702 33,000  Level Gander Center
Mon 02:58:35 AM 50.2667 -47.8167 78° East 600 690 33,000  Level Gander Center
Mon 03:01:00 AM 50.3236 -47.3687 79° East  Level FlightAware
Mon 03:08:00 AM 50.5137 -45.7519 79° East  Level FlightAware
Mon 03:09:00 AM 50.5391 -45.5199 80° East  Level FlightAware
Mon 03:10:00 AM 50.5639 -45.2877 80° East  Level FlightAware
Mon 03:11:00 AM 50.5883 -45.0552 81° East  Level FlightAware
Mon 03:12:00 AM 50.6123 -44.8225 81° East  Level FlightAware
Mon 03:13:00 AM 50.6357 -44.5895 81° East  Level FlightAware
Mon 03:14:00 AM 50.6588 -44.3563 81° East  Level FlightAware
Mon 03:15:00 AM 50.6813 -44.1229 81° East  Level FlightAware
Mon 03:16:00 AM 50.7034 -43.8893 81° East  Level FlightAware
Mon 03:17:00 AM 50.7250 -43.6554 82° East  Level FlightAware
Mon 03:18:00 AM 50.7461 -43.4213 82° East  Level FlightAware
Mon 03:19:00 AM 50.7668 -43.1870 82° East  Level FlightAware
Mon 03:20:00 AM 50.7870 -42.9525 82° East  Level FlightAware
Mon 03:21:00 AM 50.8067 -42.7179 82° East  Level FlightAware
Mon 03:22:00 AM 50.8260 -42.4830 83° East  Level FlightAware
Mon 03:23:00 AM 50.8448 -42.2479 83° East  Level FlightAware
Mon 03:24:00 AM 50.8631 -42.0126 83° East  Level FlightAware
Mon 03:25:00 AM 50.8810 -41.7772 83° East  Level FlightAware
Mon 03:26:00 AM 50.8983 -41.5416 83° East  Level FlightAware
Mon 03:27:00 AM 50.9152 -41.3058 83° East  Level FlightAware
Mon 03:28:00 AM 50.9316 -41.0698 84° East  Level FlightAware
Mon 03:29:00 AM 50.9476 -40.8337 84° East  Level FlightAware
Mon 03:30:00 AM 50.9631 -40.5974 84° East  Level FlightAware
Mon 03:31:00 AM 50.9781 -40.3610 84° East  Level FlightAware
Mon 03:31:00 AM 51.0000 -40.0000 77° East 596 686 33,000  Level ETMS Enhanced
Mon 03:32:00 AM 50.9926 -40.1244 84° East  Level FlightAware
Mon 03:33:00 AM 51.0159 -39.8900 77° East  Level FlightAware
Mon 03:34:00 AM 51.0492 -39.6580 77° East  Level FlightAware
Mon 03:35:00 AM 51.0820 -39.4257 77° East  Level FlightAware
Mon 03:36:00 AM 51.1144 -39.1930 77° East  Level FlightAware
Mon 03:37:00 AM 51.3132 -37.6740 79° East 596 686 33,000  Level FlightAware
Mon 03:38:00 AM 51.3451 -37.4136 79° East 596 686 33,000  Level FlightAware
Mon 03:39:00 AM 51.3765 -37.1529 79° East 596 686 33,000  Level FlightAware
Mon 03:40:00 AM 51.4072 -36.8918 79° East 596 686 33,000  Level FlightAware
Mon 03:41:00 AM 51.4375 -36.6304 80° East 596 686 33,000  Level FlightAware
Mon 03:42:00 AM 51.4671 -36.3687 80° East 596 686 33,000  Level FlightAware
Mon 03:43:00 AM 51.4961 -36.1066 80° East 596 686 33,000  Level FlightAware
Mon 03:44:00 AM 51.5245 -35.8442 80° East 596 686 33,000  Level FlightAware
Mon 03:45:00 AM 51.5524 -35.5814 80° East 596 686 33,000  Level FlightAware
Mon 03:46:00 AM 51.5797 -35.3184 81° East 596 686 33,000  Level FlightAware
Mon 03:47:00 AM 51.6064 -35.0550 81° East 596 686 33,000  Level FlightAware
Mon 03:48:00 AM 51.6325 -34.7913 81° East 596 686 33,000  Level FlightAware
Mon 03:49:00 AM 51.6580 -34.5273 81° East 596 686 33,000  Level FlightAware
Mon 03:50:00 AM 51.6829 -34.2631 81° East 596 686 33,000  Level FlightAware
Mon 03:51:00 AM 51.7072 -33.9985 82° East 596 686 33,000  Level FlightAware
Mon 03:52:00 AM 51.7309 -33.7337 82° East 596 686 33,000  Level FlightAware
Mon 03:53:00 AM 51.7540 -33.4685 82° East 596 686 33,000  Level FlightAware
Mon 03:54:00 AM 51.7766 -33.2031 82° East 596 686 33,000  Level FlightAware
Mon 03:55:00 AM 51.7985 -32.9375 83° East 596 686 33,000  Level FlightAware
Mon 03:56:00 AM 51.8198 -32.6716 83° East 596 686 33,000  Level FlightAware
Mon 03:57:00 AM 51.8406 -32.4054 83° East 596 686 33,000  Level FlightAware
Mon 03:58:00 AM 51.8607 -32.1390 83° East 596 686 33,000  Level FlightAware
Mon 03:59:00 AM 51.8802 -31.8724 83° East 596 686 33,000  Level FlightAware
Mon 04:00:00 AM 51.8992 -31.6056 84° East 596 686 33,000  Level FlightAware
Mon 04:01:00 AM 51.9175 -31.3385 84° East 596 686 33,000  Level FlightAware
Mon 04:02:00 AM 51.9352 -31.0712 84° East 596 686 33,000  Level FlightAware
Mon 04:03:00 AM 51.9523 -30.8037 84° East 596 686 33,000  Level FlightAware
Mon 04:04:00 AM 51.9688 -30.5360 84° East 596 686 33,000  Level FlightAware
Mon 04:05:00 AM 51.9847 -30.2681 85° East 596 686 33,000  Level FlightAware
Mon 04:06:00 AM 51.9985 -30.0261 85° East  Level FlightAware
Mon 04:07:00 AM 52.0119 -29.7840 85° East  Level FlightAware
Mon 04:08:00 AM 52.0268 -29.8144 77° East  Level FlightAware
Mon 04:08:00 AM 52.0000 -30.0000 77° East 583 671 33,000  Level ETMS Enhanced
Mon 04:09:00 AM 52.0606 -29.5773 77° East  Level FlightAware
Mon 04:10:00 AM 52.0938 -29.3399 77° East  Level FlightAware
Mon 04:11:00 AM 52.1266 -29.1022 77° East  Level FlightAware
Mon 04:12:00 AM 52.1590 -28.8641 77° East  Level FlightAware
Mon 04:13:00 AM 52.1903 -28.6296 78° East  Level FlightAware
Mon 04:14:00 AM 52.3125 -27.6755 79° East 583 671 33,000  Level FlightAware
Mon 04:15:00 AM 52.3444 -27.4152 79° East 583 671 33,000  Level FlightAware
Mon 04:16:00 AM 52.3757 -27.1546 79° East 583 671 33,000  Level FlightAware
Mon 04:17:00 AM 52.4064 -26.8937 79° East 583 671 33,000  Level FlightAware
Mon 04:18:00 AM 52.4366 -26.6323 79° East 583 671 33,000  Level FlightAware
Mon 04:19:00 AM 52.4662 -26.3706 80° East 583 671 33,000  Level FlightAware
Mon 04:20:00 AM 52.4952 -26.1086 80° East 583 671 33,000  Level FlightAware
Mon 04:21:00 AM 52.5236 -25.8462 80° East 583 671 33,000  Level FlightAware
Mon 04:22:00 AM 52.5515 -25.5834 80° East 583 671 33,000  Level FlightAware
Mon 04:23:00 AM 52.5788 -25.3204 80° East 583 671 33,000  Level FlightAware
Mon 04:24:00 AM 52.6054 -25.0570 81° East 583 671 33,000  Level FlightAware
Mon 04:25:00 AM 52.6315 -24.7933 81° East 583 671 33,000  Level FlightAware
Mon 04:26:00 AM 52.6571 -24.5293 81° East 583 671 33,000  Level FlightAware
Mon 04:27:00 AM 52.6820 -24.2650 81° East 583 671 33,000  Level FlightAware
Mon 04:28:00 AM 52.7063 -24.0004 81° East 583 671 33,000  Level FlightAware
Mon 04:29:00 AM 52.7301 -23.7355 82° East 583 671 33,000  Level FlightAware
Mon 04:30:00 AM 52.7532 -23.4703 82° East 583 671 33,000  Level FlightAware
Mon 04:31:00 AM 52.7758 -23.2048 82° East 583 671 33,000  Level FlightAware
Mon 04:32:00 AM 52.7977 -22.9391 82° East 583 671 33,000  Level FlightAware
Mon 04:33:00 AM 52.8191 -22.6731 83° East 583 671 33,000  Level FlightAware
Mon 04:34:00 AM 52.8399 -22.4068 83° East 583 671 33,000  Level FlightAware
Mon 04:35:00 AM 52.8601 -22.1403 83° East 583 671 33,000  Level FlightAware
Mon 04:36:00 AM 52.8797 -21.8736 83° East 583 671 33,000  Level FlightAware
Mon 04:37:00 AM 52.8987 -21.6066 83° East 583 671 33,000  Level FlightAware
Mon 04:38:00 AM 52.9171 -21.3393 84° East 583 671 33,000  Level FlightAware
Mon 04:39:00 AM 52.9348 -21.0719 84° East 583 671 33,000  Level FlightAware
Mon 04:40:00 AM 52.9520 -20.8042 84° East 583 671 33,000  Level FlightAware
Mon 04:41:00 AM 52.9686 -20.5364 84° East 583 671 33,000  Level FlightAware
Mon 04:42:00 AM 52.9846 -20.2683 84° East 583 671 33,000 56 Level FlightAware
Mon 04:43:00 AM 52.9986 -20.0249 84° East  Level FlightAware
Mon 04:44:00 AM 53.0121 -19.7813 85° East  Level FlightAware
Mon 04:45:00 AM 52.9994 -19.8055 90° East  Level FlightAware
Mon 04:46:00 AM 52.9982 -19.5609 90° East  Level FlightAware
Mon 04:47:00 AM 52.9964 -19.3164 91° East  Level FlightAware
Mon 04:48:00 AM 52.9942 -19.0719 91° East  Level FlightAware
Mon 04:49:00 AM 52.9915 -18.8275 91° East  Level FlightAware
Mon 04:50:00 AM 52.9883 -18.5830 91° East  Level FlightAware
Mon 04:51:00 AM 52.9846 -18.3391 91° East  Level FlightAware
Mon 04:52:00 AM 52.9804 -18.0952 92° East  Level FlightAware
Mon 04:53:00 AM 52.9757 -17.8513 92° East  Level FlightAware
Mon 04:54:00 AM 52.9704 -17.6075 92° East  Level FlightAware
Mon 04:55:00 AM 52.9647 -17.3638 92° East  Level FlightAware
Mon 04:56:00 AM 52.9585 -17.1201 92° East  Level FlightAware
Mon 04:57:00 AM 52.9518 -16.8765 93° East  Level FlightAware
Mon 04:58:00 AM 52.9446 -16.6329 93° East  Level FlightAware
Mon 04:59:00 AM 52.9369 -16.3895 93° East  Level FlightAware
Mon 05:00:00 AM 52.9287 -16.1462 93° East  Level FlightAware
Mon 05:01:00 AM 52.9200 -15.9029 93° East  Level FlightAware
Mon 05:02:00 AM 52.9108 -15.6597 93° East  Level FlightAware
Mon 05:03:00 AM 52.9011 -15.4167 94° East  Level FlightAware
Mon 05:04:00 AM 52.8909 -15.1737 94° East  Level FlightAware
Mon 05:05:00 AM 52.8805 -14.9309 94° East  Level FlightAware
Mon 05:06:00 AM 52.8702 -14.6881 94° East  Level FlightAware
Mon 05:07:00 AM 52.8595 -14.4454 94° East  Level FlightAware
Mon 05:08:00 AM 52.8482 -14.2028 94° East  Level FlightAware
Mon 05:09:00 AM 52.8365 -13.9604 94° East  Level FlightAware
Mon 05:10:00 AM 52.8242 -13.7181 95° East  Level FlightAware
Mon 05:11:00 AM 52.8115 -13.4759 95° East  Level FlightAware
Mon 05:12:00 AM 52.7983 -13.2338 95° East  Level FlightAware
Mon 05:13:00 AM 52.7846 -12.9920 95° East  Level FlightAware
Mon 05:14:00 AM 52.7704 -12.7502 95° East  Level FlightAware
Mon 05:15:00 AM 52.7556 -12.5087 96° East  Level FlightAware
Mon 05:16:00 AM 52.7405 -12.2673 96° East  Level FlightAware
Mon 05:16:36 AM 52.9040 -12.9480 96° East 492 566 35,000  Level FlightAware
Mon 05:17:00 AM 52.7248 -12.0261 96° East  Level FlightAware
Mon 05:18:00 AM 52.7086 -11.7850 96° East  Level FlightAware
Mon 05:18:03 AM 52.8820 -12.6530 97° East 491 565 35,000  Level FlightAware
Mon 05:18:40 AM 52.8690 -12.5040 98° East 488 562 35,000  Level FlightAware
Mon 05:19:26 AM 52.8540 -12.3170 97° East 487 560 35,000  Level FlightAware
Mon 05:20:06 AM 52.8410 -12.1700 98° East 486 559 35,000  Level FlightAware
Mon 05:20:51 AM 52.8270 -12.0010 98° East 486 559 35,000  Level FlightAware
Mon 05:21:26 AM 52.8160 -11.8760 98° East 486 559 35,000  Level FlightAware
Mon 05:22:11 AM 52.8020 -11.7070 98° East 485 558 35,000  Level FlightAware
Mon 05:22:56 AM 52.7870 -11.5430 99° East 485 558 35,000  Level FlightAware
Mon 05:23:36 AM 52.7750 -11.4080 98° East 483 556 35,000  Level FlightAware
Mon 05:24:21 AM 52.7590 -11.2330 99° East 479 551 35,000  Level FlightAware
Mon 05:25:01 AM 52.7460 -11.0930 99° East 477 549 35,000  Level FlightAware
Mon 05:25:43 AM 52.7350 -10.9640 98° East 477 549 35,000  Level FlightAware
Mon 05:26:26 AM 52.7170 -10.7850 99° East 477 549 35,000  Level FlightAware
Mon 05:27:02 AM 52.7050 -10.6560 99° East 479 551 35,000  Level FlightAware
Mon 05:27:47 AM 52.6890 -10.4920 99° East 483 556 35,000  Level FlightAware
Mon 05:28:27 AM 52.6750 -10.3540 99° East 484 557 35,000  Level FlightAware
Mon 05:29:13 AM 52.6580 -10.1770 99° East 489 563 35,000  Level FlightAware
Mon 05:29:53 AM 52.6420 -10.0270 100° East 490 564 35,000  Level FlightAware
Mon 05:30:37 AM 52.6250 -9.8630 100° East 492 566 35,000  Level FlightAware
Mon 05:31:11 AM 52.6140 -9.7560 100° East 494 568 35,000  Level FlightAware
Mon 05:31:57 AM 52.5950 -9.5690 99° East 494 568 35,000  Level FlightAware
Mon 05:32:42 AM 52.5760 -9.4000 100° East 493 567 35,000  Level FlightAware
Mon 05:33:22 AM 52.5610 -9.2560 100° East 490 564 35,000  Level FlightAware
Mon 05:34:06 AM 52.5440 -9.1060 100° East 491 565 35,000  Level FlightAware
Mon 05:34:47 AM 52.5260 -8.9410 100° East 491 565 35,000  Level FlightAware
Mon 05:35:24 AM 52.5110 -8.8140 101° East 492 566 35,000  Level FlightAware
Mon 05:36:02 AM 52.4734 -8.6242 101° East 498 573 35,000  Level FlightAware
Mon 05:36:07 AM 52.4920 -8.6470 101° East 496 571 35,000  Level FlightAware
Mon 05:36:32 AM 52.4604 -8.5130 101° East 498 573 35,000  Level FlightAware
Mon 05:36:47 AM 52.4750 -8.5000 101° East 497 572 35,000  Level FlightAware
Mon 05:37:02 AM 52.4471 -8.4021 101° East 502 578 35,000  Level FlightAware
Mon 05:37:22 AM 52.4600 -8.3690 101° East 499 574 35,000  Level FlightAware
Mon 05:38:02 AM 52.4207 -8.1780 101° East 504 580 35,000  Level FlightAware
Mon 05:38:14 AM 52.4440 -8.2340 101° East 499 574 35,000  Level FlightAware
Mon 05:38:32 AM 52.4072 -8.0663 101° East 498 573 35,000  Level FlightAware
Mon 05:39:02 AM 52.3937 -7.9550 101° East 504 580 35,000  Level FlightAware
Mon 05:39:04 AM 52.4150 -7.9930 101° East 499 574 35,000  Level FlightAware
Mon 05:39:32 AM 52.3800 -7.8445 101° East 504 580 35,000  Level FlightAware
Mon 05:39:44 AM 52.3960 -7.8440 101° East 499 574 35,000  Level FlightAware
Mon 05:40:02 AM 52.3624 -7.7359 101° East 502 578 35,000  Level FlightAware
Mon 05:40:24 AM 52.3700 -7.6990 101° East 499 574 35,000  Level FlightAware
Mon 05:41:10 AM 52.3400 -7.5330 106° East 499 574 35,000  Level FlightAware
Mon 05:41:49 AM 52.3150 -7.3950 106° East 499 574 35,000  Level FlightAware
Mon 05:42:20 AM 52.2712 -7.2389 106° East 498 573 35,000  Level FlightAware
Mon 05:42:31 AM 52.2890 -7.2460 106° East 500 575 35,000  Level FlightAware
Mon 05:42:51 AM 52.2527 -7.1295 106° East 498 573 35,000  Level FlightAware
Mon 05:43:13 AM 52.2620 -7.0870 106° East 501 577 35,000  Level FlightAware
Mon 05:43:51 AM 52.2159 -6.9119 106° East 500 575 35,000  Level FlightAware
Mon 05:43:55 AM 52.2360 -6.9360 106° East 503 579 35,000  Level FlightAware
Mon 05:44:21 AM 52.1972 -6.8029 106° East 502 578 35,000  Level FlightAware
Mon 05:44:40 AM 52.2090 -6.7710 106° East 505 581 35,000  Level FlightAware
Mon 05:45:21 AM 52.1608 -6.5837 106° East 504 580 35,000  Level FlightAware
Mon 05:45:22 AM 52.1840 -6.6190 106° East 504 580 35,000  Level FlightAware
Mon 05:45:51 AM 52.1431 -6.4738 106° East 508 585 35,000  Level FlightAware
Mon 05:46:02 AM 52.1600 -6.4680 106° East 504 580 35,000  Level FlightAware
Mon 05:46:21 AM 52.1259 -6.3639 106° East 510 587 35,000  Level FlightAware
Mon 05:46:44 AM 52.1390 -6.3160 106° East 503 579 35,000  Level FlightAware
Mon 05:47:21 AM 52.1039 -6.1413 106° East 506 582 35,000  Level FlightAware
Mon 05:47:26 AM 52.1250 -6.1570 106° East 499 574 35,000  Level FlightAware
Mon 05:47:51 AM 52.0943 -6.0304 106° East 506 582 35,000  Level FlightAware
Mon 05:48:10 AM 52.1120 -5.9950 106° East 496 571 35,000  Level FlightAware
Mon 05:48:49 AM 52.1000 -5.8510 106° East 494 568 35,000  Level FlightAware
Mon 05:48:51 AM 52.0761 -5.8089 106° East 508 585 35,000  Level FlightAware
Mon 05:49:21 AM 52.0674 -5.6994 106° East 504 580 35,000  Level FlightAware
Mon 05:49:31 AM 52.0870 -5.6940 106° East 487 560 35,000  Level FlightAware
Mon 05:49:51 AM 52.0592 -5.5910 106° East 500 575 35,000  Level FlightAware
Mon 05:50:15 AM 52.0750 -5.5350 106° East 484 557 35,000  Level FlightAware
Mon 05:50:55 AM 52.0640 -5.3910 97° East 482 555 35,000  Level FlightAware
Mon 05:51:39 AM 52.0530 -5.2320 96° East 481 554 35,000  Level FlightAware
Mon 05:52:15 AM 52.0210 -5.0771 96° East 492 566 35,000  Level FlightAware
Mon 05:52:20 AM 52.0420 -5.0880 96° East 482 555 35,000  Level FlightAware
Mon 05:52:45 AM 52.0131 -4.9702 96° East 494 568 35,000  Level FlightAware
Mon 05:53:04 AM 52.0310 -4.9310 96° East 484 557 35,000  Level FlightAware
Mon 05:53:44 AM 52.0200 -4.7870 96° East 486 559 35,000  Level FlightAware
Mon 05:53:45 AM 51.9983 -4.7546 96° East 492 566 35,000  Level FlightAware
Mon 05:54:21 AM 51.9893 -4.6248 96° East 498 573 35,000  Level FlightAware
Mon 05:54:22 AM 52.0100 -4.6500 96° East 488 562 35,000  Level FlightAware
Mon 05:54:51 AM 51.9814 -4.5164 96° East 498 573 35,000  Level FlightAware
Mon 05:55:10 AM 51.9980 -4.4730 96° East 490 564 35,000  Level FlightAware
Mon 05:55:16 AM 51.9958 -4.4478 98° East 490 564 35,000  Level FlightAware
Mon 05:55:53 AM 51.9862 -4.3143 97° East 490 564 35,000  Level FlightAware
Mon 05:56:27 AM 51.9773 -4.1903 97° East 490 564 35,000  Level FlightAware
Mon 05:57:00 AM 51.9685 -4.0711 97° East 491 565 35,000  Level FlightAware
Mon 05:57:48 AM 51.9400 -3.9060 106° East 476 548 35,000  Level FlightAware
Mon 05:58:19 AM 51.9180 -3.7997 109° East 480 552 35,000  Level FlightAware
Mon 05:58:57 AM 51.8762 -3.6464 109° East 498 573 35,000  Level FlightAware
Mon 05:59:13 AM 51.8876 -3.6095 109° East 480 552 35,000  Level FlightAware
Mon 05:59:33 AM 51.8578 -3.5200 109° East 498 573 35,000  Level FlightAware
Mon 06:00:04 AM 51.8620 -3.4340 109° East 485 558 35,000  Level FlightAware
Mon 06:00:21 AM 51.8336 -3.3515 109° East 500 575 35,000  Level FlightAware
Mon 06:00:41 AM 51.8425 -3.3008 109° East 480 552 35,000  Level FlightAware
Mon 06:01:12 AM 51.8259 -3.1893 104° East 484 557 35,000  Level FlightAware
Mon 06:01:33 AM 51.7965 -3.0985 104° East 498 573 35,000  Level FlightAware
Mon 06:01:43 AM 51.8094 -3.0827 104° East 485 558 35,000  Level FlightAware
Mon 06:02:13 AM 51.7925 -2.9754 104° East 486 559 35,000  Level FlightAware
Mon 06:02:49 AM 51.7728 -2.8501 104° East 486 559 35,000  Level FlightAware
Mon 06:03:20 AM 51.7559 -2.7422 104° East 486 559 35,000  Level FlightAware
Mon 06:03:51 AM 51.7383 -2.6324 104° East 486 559 35,000  Level FlightAware
Mon 06:04:23 AM 51.7206 -2.5216 104° East 488 562 35,000  Level FlightAware
Mon 06:04:54 AM 51.7032 -2.4134 105° East 489 563 35,000  Level FlightAware
Mon 06:05:16 AM 51.6743 -2.3210 105° East 492 566 35,000  Level FlightAware
Mon 06:05:26 AM 51.6844 -2.2976 105° East 491 565 35,000  Level FlightAware
Mon 06:05:46 AM 51.6574 -2.2154 105° East 494 568 35,000  Level FlightAware
Mon 06:06:03 AM 51.6631 -2.1671 105° East 493 567 35,000  Level FlightAware
Mon 06:06:36 AM 51.6440 -2.0504 105° East 495 570 35,000  Level FlightAware
Mon 06:07:07 AM 51.6257 -1.9404 105° East 496 571 35,000  Level FlightAware
Mon 06:07:38 AM 51.6075 -1.8311 105° East 498 573 35,000  Level FlightAware
Mon 06:07:58 AM 51.5804 -1.7459 105° East 498 573 35,000  Level FlightAware
Mon 06:08:08 AM 51.5893 -1.7222 105° East 500 575 35,000  Level FlightAware
Mon 06:08:28 AM 51.5627 -1.6384 105° East 500 575 35,000  Level FlightAware
Mon 06:08:39 AM 51.5707 -1.6110 105° East 499 574 35,000  Level FlightAware
Mon 06:08:59 AM 51.5447 -1.5307 105° East 498 573 35,000  Level FlightAware
Mon 06:09:09 AM 51.5523 -1.5031 105° East 499 574 35,000  Level FlightAware
Mon 06:09:40 AM 51.5338 -1.3948 105° East 499 574 35,000  Level FlightAware
Mon 06:10:10 AM 51.5152 -1.2858 105° East 498 573 35,000  Level FlightAware
Mon 06:10:41 AM 51.4983 -1.1757 104° East 501 577 35,000  Level FlightAware
Mon 06:11:13 AM 51.4831 -1.0571 102° East 504 580 35,000  Level FlightAware
Mon 06:11:44 AM 51.4712 -0.9425 99° East 508 585 35,000  Level FlightAware
Mon 06:12:15 AM 51.4613 -0.8295 98° East 511 588 35,000  Level FlightAware
Mon 06:12:45 AM 51.4511 -0.7149 98° East 512 589 35,000  Level FlightAware
Mon 06:13:18 AM 51.4405 -0.5933 98° East 512 589 35,000  Level FlightAware
Mon 06:13:48 AM 51.4303 -0.4796 98° East 511 588 35,000  Level FlightAware
Mon 06:14:18 AM 51.4200 -0.3664 98° East 512 589 35,000  Level FlightAware
Mon 06:14:51 AM 51.4088 -0.2448 98° East 513 590 35,000  Level FlightAware
Mon 06:15:23 AM 51.3974 -0.1241 99° East 510 587 35,000  Level FlightAware
Mon 06:15:54 AM 51.3862 -0.0071 99° East 509 586 35,000  Level FlightAware
Mon 06:16:25 AM 51.3755 0.1048 99° East 509 586 35,000  Level FlightAware
Mon 06:16:55 AM 51.3644 0.2190 99° East 510 587 35,000  Level FlightAware
Mon 06:17:24 AM 51.3435 0.3326 99° East 498 573 35,000  Level FlightAware
Mon 06:17:48 AM 51.3452 0.4152 99° East 511 588 35,000  Level FlightAware
Mon 06:18:19 AM 51.3339 0.5299 99° East 512 589 35,000  Level FlightAware
Mon 06:18:49 AM 51.3227 0.6423 99° East 512 589 35,000  Level FlightAware
Mon 06:19:06 AM 51.3061 0.7136 99° East 500 575 35,000  Level FlightAware
Mon 06:19:20 AM 51.3111 0.7568 99° East 512 589 35,000  Level FlightAware
Mon 06:19:50 AM 51.2997 0.8690 99° East 512 589 35,000  Level FlightAware
Mon 06:20:06 AM 51.2833 0.9381 99° East 498 573 35,000  Level FlightAware
Mon 06:20:20 AM 51.2880 0.9818 99° East 511 588 35,000  Level FlightAware
Mon 06:20:48 AM 51.2672 1.0951 99° East 500 575 35,000  Level FlightAware
Mon 06:21:06 AM 51.2704 1.1520 99° East 511 588 35,000  Level FlightAware
Mon 06:21:30 AM 51.2510 1.2510 99° East 498 573 35,000  Level FlightAware
Mon 06:21:44 AM 51.2570 1.2820 99° East 507 583 35,000  Level FlightAware
Mon 06:22:25 AM 51.2400 1.4390 100° East 509 586 35,000  Level FlightAware
Mon 06:23:01 AM 51.2154 1.5846 100° East 498 573 35,000  Level FlightAware
Mon 06:23:01 AM 51.2260 1.5690 100° East 510 587 35,000  Level FlightAware
Mon 06:23:49 AM 51.1908 1.7606 100° East 496 571 35,000  Level FlightAware
Mon 06:23:52 AM 51.2050 1.7370 100° East 502 578 35,000  Level FlightAware
Mon 06:24:03 AM 51.1883 1.7984 113° Southeast 496 571 35,000  Level FlightAware
Mon 06:24:19 AM 51.1633 1.8607 113° Southeast 496 571 35,000  Level FlightAware
Mon 06:24:45 AM 51.1494 1.9380 113° Southeast 495 570 35,000  Level FlightAware
Mon 06:24:58 AM 51.1369 1.9823 114° Southeast 495 570 35,000  Level FlightAware
Mon 06:25:28 AM 51.1079 2.0800 115° Southeast 495 570 35,000  Level FlightAware
Mon 06:25:37 AM 51.0991 2.1090 116° Southeast 494 568 35,000  Level FlightAware
Mon 06:26:01 AM 51.0649 2.1985 116° Southeast 496 571 35,000  Level FlightAware
Mon 06:26:21 AM 51.0562 2.2526 116° Southeast 495 570 35,000  Level FlightAware
Mon 06:26:52 AM 51.0250 2.3571 115° Southeast 496 571 35,000  Level FlightAware
Mon 06:27:22 AM 50.9980 2.4460 116° Southeast 497 572 35,000  Level FlightAware
Mon 06:27:37 AM 50.9695 2.5154 116° Southeast 498 573 35,000  Level FlightAware
Mon 06:28:01 AM 50.9580 2.5770 116° Southeast 499 574 35,000  Level FlightAware
Mon 06:28:19 AM 50.9271 2.6539 116° Southeast 498 573 35,000  Level FlightAware
Mon 06:28:46 AM 50.9120 2.7290 116° Southeast 500 575 35,000  Level FlightAware
Mon 06:29:25 AM 50.8740 2.8560 115° Southeast 500 575 35,000  Level FlightAware
Mon 06:29:55 AM 50.8297 2.9714 115° Southeast 500 575 35,000  Level FlightAware
Mon 06:29:55 AM 50.8420 2.9580 115° Southeast 500 575 35,000  Level FlightAware
Mon 06:30:14 AM 50.8232 3.0192 116° Southeast 501 577 35,000  Level FlightAware
Mon 06:30:31 AM 50.7933 3.0909 116° Southeast 504 580 35,000  Level FlightAware
Mon 06:30:51 AM 50.7849 3.1429 116° Southeast 500 575 35,000  Level FlightAware
Mon 06:31:37 AM 50.7255 3.3083 116° Southeast 500 575 35,000  Level FlightAware
Mon 06:31:58 AM 50.7180 3.3590 116° Southeast 498 573 35,000  Level FlightAware
Mon 06:32:40 AM 50.6740 3.4960 116° Southeast 498 573 35,000  Level FlightAware
Mon 06:32:43 AM 50.6574 3.5237 116° Southeast 506 582 35,000  Level FlightAware
Mon 06:33:19 AM 50.6200 3.6409 116° Southeast 500 575 35,000  Level FlightAware
Mon 06:33:21 AM 50.6330 3.6290 116° Southeast 496 571 35,000  Level FlightAware
Mon 06:34:03 AM 50.5910 3.7610 117° Southeast 496 571 35,000  Level FlightAware
Mon 06:34:30 AM 50.5610 3.8542 117° Southeast 497 572 35,000  Level FlightAware
Mon 06:35:29 AM 50.5050 4.0300 117° Southeast 498 573 35,000  Level FlightAware
Mon 06:36:11 AM 50.4570 4.1780 117° Southeast 499 574 35,000  Level FlightAware
Mon 06:36:53 AM 50.4150 4.3080 117° Southeast 497 572 35,000  Level FlightAware
Mon 06:37:31 AM 50.3760 4.4290 117° Southeast 496 571 35,000  Level FlightAware
Mon 06:37:32 AM 50.3547 4.4543 117° Southeast 1 1 35,000  Level FlightAware
Mon 06:38:19 AM 50.3230 4.5890 117° Southeast 496 571 35,000  Level FlightAware
Mon 06:39:01 AM 50.2810 4.7190 117° Southeast 499 574 35,000  Level FlightAware
Mon 06:39:45 AM 50.2350 4.8570 117° Southeast 501 577 35,000  Level FlightAware
Mon 06:40:25 AM 50.1900 4.9930 117° Southeast 508 585 35,000  Level FlightAware
Mon 06:41:09 AM 50.1460 5.1240 118° Southeast 508 585 35,000  Level FlightAware
Mon 06:41:48 AM 50.1000 5.2630 117° Southeast 505 581 35,000  Level FlightAware
Mon 06:42:29 AM 50.0580 5.3860 118° Southeast 508 585 35,000  Level FlightAware
Mon 06:43:12 AM 50.0090 5.5320 118° Southeast 512 589 35,000  Level FlightAware
Mon 06:43:52 AM 49.9650 5.6590 118° Southeast 514 592 35,000  Level FlightAware
Mon 06:44:31 AM 49.9200 5.7910 118° Southeast 517 595 35,000  Level FlightAware
Mon 06:45:17 AM 49.8690 5.9380 118° Southeast 518 596 35,000  Level FlightAware
Mon 06:46:00 AM 49.8210 6.0770 118° Southeast 519 597 35,000  Level FlightAware
Mon 06:46:40 AM 49.7760 6.2090 118° Southeast 521 600 35,000  Level FlightAware
Mon 06:47:25 AM 49.7260 6.3520 118° Southeast 523 602 35,000  Level FlightAware
Mon 06:48:00 AM 49.6830 6.4720 119° Southeast 523 602 35,000  Level FlightAware
Mon 06:49:02 AM 49.6150 6.6650 118° Southeast 520 598 35,000  Level FlightAware
Mon 06:49:37 AM 49.5730 6.7820 119° Southeast 519 597 35,000  Level FlightAware
Mon 06:50:27 AM 49.5120 6.9520 119° Southeast 519 597 35,000  Level FlightAware
Mon 06:51:02 AM 49.4710 7.0670 119° Southeast 519 597 35,000  Level FlightAware
Mon 06:51:47 AM 49.4230 7.2000 119° Southeast 524 603 35,000  Level FlightAware
Mon 06:52:32 AM 49.3660 7.3570 119° Southeast 522 601 35,000  Level FlightAware
Mon 06:53:27 AM 49.3000 7.5370 119° Southeast 514 592 35,000  Level FlightAware
Mon 06:54:12 AM 49.2470 7.6800 120° Southeast 518 596 35,000  Level FlightAware
Mon 06:55:08 AM 49.1840 7.8510 119° Southeast 512 589 35,000  Level FlightAware
Mon 06:55:48 AM 49.1350 7.9830 120° Southeast 513 590 35,000  Level FlightAware
Mon 06:56:28 AM 49.0880 8.1040 121° Southeast 510 587 35,000  Level FlightAware
Mon 06:57:08 AM 49.0310 8.2130 129° Southeast 500 575 35,000  Level FlightAware
Mon 06:57:56 AM 48.9530 8.3450 132° Southeast 504 580 35,000  Level FlightAware
Mon 06:58:43 AM 48.8800 8.4670 132° Southeast 509 586 35,000  Level FlightAware
Mon 06:59:31 AM 48.8060 8.5910 132° Southeast 509 586 35,000  Level FlightAware
Mon 07:00:23 AM 48.7240 8.7280 132° Southeast 510 587 35,000  Level FlightAware
Mon 07:01:09 AM 48.6370 8.8310 142° Southeast 504 580 35,000  Level FlightAware
Mon 07:01:49 AM 48.5660 8.9140 142° Southeast 504 580 35,000  Level FlightAware
Mon 07:02:28 AM 48.4990 8.9950 141° Southeast 504 580 35,000  Level FlightAware
Mon 07:03:14 AM 48.4110 9.1040 141° Southeast 503 579 35,000  Level FlightAware
Mon 07:03:59 AM 48.3340 9.2010 140° Southeast 503 579 35,000  Level FlightAware
Mon 07:04:41 AM 48.2570 9.2960 141° Southeast 501 577 35,000  Level FlightAware
Mon 07:05:26 AM 48.1750 9.3970 141° Southeast 502 578 35,000  Level FlightAware
Mon 07:06:06 AM 48.1020 9.4870 141° Southeast 501 577 35,000  Level FlightAware
Mon 07:06:54 AM 48.0140 9.5940 141° Southeast 501 577 35,000  Level FlightAware
Mon 07:07:26 AM 47.9550 9.6650 141° Southeast 501 577 35,000  Level FlightAware
Mon 07:08:12 AM 47.8750 9.7630 141° Southeast 502 578 35,000  Level FlightAware
Mon 07:08:52 AM 47.8080 9.8430 141° Southeast 502 578 35,000  Level FlightAware
Mon 07:09:37 AM 47.7280 9.9400 141° Southeast 502 578 35,000  Level FlightAware
Mon 07:10:17 AM 47.6480 10.0340 142° Southeast 502 578 35,000  Level FlightAware
Mon 07:10:57 AM 47.5760 10.1200 141° Southeast 501 577 35,000  Level FlightAware
Mon 07:11:36 AM 47.5220 10.1840 141° Southeast 501 577 35,000  Level FlightAware
Mon 07:12:22 AM 47.4210 10.3030 141° Southeast 501 577 35,000  Level FlightAware
Mon 07:13:04 AM 47.3450 10.3920 142° Southeast 500 575 35,000  Level FlightAware
Mon 07:13:48 AM 47.2660 10.4860 141° Southeast 500 575 35,000  Level FlightAware
Mon 07:14:28 AM 47.1940 10.5690 142° Southeast 499 574 35,000  Level FlightAware
Mon 07:15:14 AM 47.1090 10.6670 142° Southeast 497 572 35,000  Level FlightAware
Mon 07:15:52 AM 47.0400 10.7340 146° Southeast 494 568 35,000  Level FlightAware
Mon 07:16:49 AM 46.9460 10.8650 136° Southeast 500 575 35,000  Level FlightAware
Mon 07:17:29 AM 46.8840 10.9610 133° Southeast 496 571 35,000  Level FlightAware
Mon 07:18:09 AM 46.8200 11.0640 132° Southeast 499 574 35,000  Level FlightAware
Mon 07:18:54 AM 46.7500 11.1750 133° Southeast 498 573 35,000  Level FlightAware
Mon 07:19:34 AM 46.6860 11.2760 133° Southeast 496 571 35,000  Level FlightAware
Mon 07:20:14 AM 46.6240 11.3720 133° Southeast 495 570 35,000  Level FlightAware
Mon 07:21:00 AM 46.5530 11.4820 133° Southeast 495 570 35,000  Level FlightAware
Mon 07:21:39 AM 46.4910 11.5780 133° Southeast 496 571 35,000 353 Level FlightAware
Mon 07:22:25 AM 46.4190 11.6890 133° Southeast 498 573 35,500 1,059 Climbing FlightAware
Mon 07:23:04 AM 46.3590 11.7810 133° Southeast 493 567 36,500 1,071 Climbing FlightAware
Mon 07:23:49 AM 46.2860 11.8930 133° Southeast 495 570 37,000 353 Climbing FlightAware
Mon 07:24:29 AM 46.2240 11.9870 134° Southeast 496 571 37,000  Level FlightAware
Mon 07:25:14 AM 46.1570 12.1000 131° Southeast 491 565 37,000  Level FlightAware
Mon 07:25:55 AM 46.1000 12.2100 127° Southeast 491 565 37,000  Level FlightAware
Mon 07:26:34 AM 46.0450 12.3140 127° Southeast 495 570 37,000  Level FlightAware
Mon 07:27:19 AM 45.9810 12.4330 128° Southeast 488 562 37,000  Level FlightAware
Mon 07:28:04 AM 45.9200 12.5480 127° Southeast 488 562 37,000  Level FlightAware
Mon 07:28:44 AM 45.8650 12.6500 128° Southeast 487 560 37,000  Level FlightAware
Mon 07:29:25 AM 45.8080 12.7560 128° Southeast 487 560 37,000  Level FlightAware
Mon 07:30:09 AM 45.7460 12.8710 128° Southeast 486 559 37,000  Level FlightAware
Mon 07:30:45 AM 45.6980 12.9610 127° Southeast 486 559 37,000  Level FlightAware
Mon 07:31:29 AM 45.6370 13.0730 128° Southeast 485 558 37,000  Level FlightAware
Mon 07:32:14 AM 45.5750 13.1870 128° Southeast 485 558 37,000  Level FlightAware
Mon 07:32:49 AM 45.5260 13.2770 128° Southeast 485 558 37,000  Level FlightAware
Mon 07:33:34 AM 45.4630 13.3930 128° Southeast 485 558 37,000  Level FlightAware
Mon 07:34:20 AM 45.3990 13.5090 128° Southeast 484 557 37,000  Level FlightAware
Mon 07:34:59 AM 45.3440 13.6100 128° Southeast 485 558 37,000  Level FlightAware
Mon 07:35:45 AM 45.2780 13.7280 128° Southeast 489 563 37,000  Level FlightAware
Mon 07:36:25 AM 45.2220 13.8290 128° Southeast 489 563 37,000  Level FlightAware
Mon 07:37:05 AM 45.1670 13.9280 128° Southeast 482 555 37,000  Level FlightAware
Mon 07:37:50 AM 45.1050 14.0390 128° Southeast 487 560 37,000  Level FlightAware
Mon 07:38:44 AM 45.0270 14.1770 129° Southeast 487 560 37,000  Level FlightAware
Mon 07:39:25 AM 44.9700 14.2780 129° Southeast 486 559 37,000  Level FlightAware
Mon 07:40:05 AM 44.9160 14.3740 128° Southeast 486 559 37,000  Level FlightAware
Mon 07:40:50 AM 44.8520 14.4860 129° Southeast 486 559 37,000  Level FlightAware
Mon 07:42:00 AM 44.7540 14.6580 129° Southeast 486 559 37,000  Level FlightAware
Mon 07:42:46 AM 44.6970 14.7600 128° Southeast 486 559 37,000  Level FlightAware
Mon 07:43:26 AM 44.6440 14.8540 128° Southeast 486 559 37,000  Level FlightAware
Mon 07:44:10 AM 44.5740 14.9720 130° Southeast 486 559 37,000  Level FlightAware
Mon 07:44:49 AM 44.5130 15.0780 129° Southeast 486 559 37,000  Level FlightAware
Mon 07:45:25 AM 44.4640 15.1620 129° Southeast 487 560 37,000  Level FlightAware
Mon 07:46:20 AM 44.3900 15.2880 129° Southeast 486 559 37,000  Level FlightAware
Mon 07:47:10 AM 44.3130 15.4200 129° Southeast 486 559 37,000  Level FlightAware
Mon 07:48:05 AM 44.2500 15.5290 129° Southeast 486 559 37,000  Level FlightAware
Mon 07:48:44 AM 44.1820 15.6430 130° Southeast 485 558 37,000  Level FlightAware
Mon 07:49:30 AM 44.1180 15.7520 129° Southeast 484 557 37,000  Level FlightAware
Mon 07:50:09 AM 44.0570 15.8550 129° Southeast 485 558 37,000  Level FlightAware
Mon 07:50:51 AM 44.0010 15.9490 130° Southeast 485 558 37,000  Level FlightAware
Mon 07:51:34 AM 43.9350 16.0590 130° Southeast 486 559 37,000  Level FlightAware
Mon 07:52:14 AM 43.8800 16.1520 129° Southeast 486 559 37,000  Level FlightAware
Mon 07:53:00 AM 43.8140 16.2620 130° Southeast 485 558 37,000  Level FlightAware
Mon 07:53:40 AM 43.7570 16.3570 130° Southeast 485 558 37,000  Level FlightAware
Mon 07:54:24 AM 43.6910 16.4660 130° Southeast 484 557 37,000  Level FlightAware
Mon 07:55:04 AM 43.6360 16.5570 130° Southeast 484 557 37,000  Level FlightAware
Mon 07:55:45 AM 43.5770 16.6550 130° Southeast 483 556 37,000  Level FlightAware
Mon 07:56:30 AM 43.5130 16.7600 130° Southeast 482 555 37,000  Level FlightAware
Mon 07:57:14 AM 43.4490 16.8650 130° Southeast 481 554 37,000  Level FlightAware
Mon 07:57:54 AM 43.3920 16.9590 130° Southeast 481 554 37,000  Level FlightAware
Mon 07:58:35 AM 43.3360 17.0490 131° Southeast 481 554 37,000  Level FlightAware
Mon 07:59:19 AM 43.2690 17.1580 130° Southeast 481 554 37,000  Level FlightAware
Mon 08:00:00 AM 43.2130 17.2490 130° Southeast 475 547 37,000  Level FlightAware
Mon 08:00:40 AM 43.1550 17.3440 130° Southeast 476 548 37,000  Level FlightAware
Mon 08:01:20 AM 43.0980 17.4350 131° Southeast 476 548 37,000  Level FlightAware
Mon 08:02:00 AM 43.0380 17.5310 131° Southeast 476 548 37,000  Level FlightAware
Mon 08:02:49 AM 42.9710 17.6390 130° Southeast 476 548 37,000  Level FlightAware
Mon 08:03:31 AM 42.9050 17.7440 131° Southeast 480 552 37,000  Level FlightAware
Mon 08:04:13 AM 42.8460 17.8390 130° Southeast 481 554 37,000  Level FlightAware
Mon 08:04:51 AM 42.7890 17.9290 131° Southeast 482 555 37,000  Level FlightAware
Mon 08:05:37 AM 42.7230 18.0340 131° Southeast 482 555 37,000  Level FlightAware
Mon 08:06:31 AM 42.6500 18.1490 131° Southeast 478 550 37,000  Level FlightAware
Mon 08:07:10 AM 42.5890 18.2440 131° Southeast 477 549 37,000  Level FlightAware
Mon 08:07:56 AM 42.5150 18.3430 135° Southeast 477 549 37,000  Level FlightAware
Mon 08:08:35 AM 42.4510 18.4270 136° Southeast 478 550 37,000  Level FlightAware
Mon 08:09:16 AM 42.3880 18.5090 136° Southeast 478 550 37,000  Level FlightAware
Mon 08:10:03 AM 42.3080 18.6120 136° Southeast 484 557 37,000  Level FlightAware
Mon 08:10:45 AM 42.2400 18.7010 136° Southeast 485 558 37,000  Level FlightAware
Mon 08:11:40 AM 42.1810 18.7780 136° Southeast 485 558 37,000  Level FlightAware
Mon 08:12:27 AM 42.0760 18.9120 137° Southeast 486 559 37,000  Level FlightAware
Mon 08:13:07 AM 42.0100 18.9980 136° Southeast 488 562 37,000  Level FlightAware
Mon 08:13:51 AM 41.9370 19.0910 137° Southeast 489 563 37,000  Level FlightAware
Mon 08:14:31 AM 41.8710 19.1750 137° Southeast 491 565 37,000  Level FlightAware
Mon 08:15:16 AM 41.8070 19.2570 136° Southeast 492 566 37,000  Level FlightAware
Mon 08:16:09 AM 41.7100 19.3800 137° Southeast 493 567 37,000  Level FlightAware
Mon 08:16:51 AM 41.6410 19.4700 136° Southeast 494 568 37,000  Level FlightAware
Mon 08:17:47 AM 41.5510 19.5890 135° Southeast 494 568 37,000  Level FlightAware
Mon 08:18:29 AM 41.4830 19.6790 135° Southeast 495 570 37,000  Level FlightAware
Mon 08:19:13 AM 41.4100 19.7740 136° Southeast 495 570 37,000  Level FlightAware
Mon 08:19:51 AM 41.3490 19.8530 136° Southeast 496 571 37,000  Level FlightAware
Mon 08:20:33 AM 41.2780 19.9440 136° Southeast 497 572 37,000  Level FlightAware
Mon 08:21:19 AM 41.2020 20.0420 136° Southeast 498 573 37,000  Level FlightAware
Mon 08:21:58 AM 41.1420 20.1190 136° Southeast 499 574 37,000  Level FlightAware
Mon 08:22:43 AM 41.0630 20.2200 136° Southeast 500 575 37,000  Level FlightAware
Mon 08:23:16 AM 41.0090 20.2890 136° Southeast 501 577 37,000  Level FlightAware
Mon 08:24:05 AM 40.9270 20.3930 136° Southeast 501 577 37,000  Level FlightAware
Mon 08:24:47 AM 40.8560 20.4830 136° Southeast 502 578 37,000  Level FlightAware
Mon 08:25:29 AM 40.7860 20.5720 136° Southeast 503 579 37,000  Level FlightAware
Mon 08:26:09 AM 40.7180 20.6560 137° Southeast 503 579 37,000  Level FlightAware
Mon 08:26:49 AM 40.6500 20.7410 137° Southeast 505 581 37,000  Level FlightAware
Mon 08:27:48 AM 40.5730 20.8380 136° Southeast 505 581 37,000  Level FlightAware
Mon 08:28:28 AM 40.5050 20.9210 137° Southeast 505 581 37,000  Level FlightAware
Mon 08:29:08 AM 40.4320 21.0100 137° Southeast 505 581 37,000  Level FlightAware
Mon 08:30:07 AM 40.3430 21.1210 136° Southeast 506 582 37,000  Level FlightAware
Mon 08:30:44 AM 40.2900 21.1880 136° Southeast 506 582 37,000  Level FlightAware
Mon 08:31:34 AM 40.2190 21.2790 136° Southeast 506 582 37,000  Level FlightAware
Mon 08:32:10 AM 40.1670 21.3440 136° Southeast 506 582 37,000  Level FlightAware
Mon 08:32:55 AM 40.0220 21.5090 139° Southeast 512 589 37,000  Level FlightAware
Mon 08:33:42 AM 39.9380 21.6090 138° Southeast 513 590 37,000  Level FlightAware
Mon 08:34:21 AM 39.8740 21.6860 137° Southeast 515 593 37,000  Level FlightAware
Mon 08:35:03 AM 39.7970 21.7780 137° Southeast 516 594 37,000  Level FlightAware
Mon 08:35:47 AM 39.7190 21.8700 138° Southeast 518 596 37,000  Level FlightAware
Mon 08:36:23 AM 39.6560 21.9450 137° Southeast 519 597 37,000  Level FlightAware
Mon 08:37:11 AM 39.5700 22.0450 138° Southeast 520 598 37,000  Level FlightAware
Mon 08:37:51 AM 39.4990 22.1290 138° Southeast 522 601 37,000  Level FlightAware
Mon 08:38:35 AM 39.4180 22.2230 138° Southeast 523 602 37,000  Level FlightAware
Mon 08:39:16 AM 39.3440 22.3090 138° Southeast 525 604 37,000  Level FlightAware
Mon 08:39:55 AM 39.2750 22.3900 138° Southeast 526 605 37,000  Level FlightAware
Mon 08:40:39 AM 39.1940 22.4830 138° Southeast 528 608 37,000  Level FlightAware
Mon 08:41:19 AM 39.1210 22.5670 138° Southeast 529 609 37,000  Level FlightAware
Mon 08:42:10 AM 39.0440 22.6560 138° Southeast 531 611 37,000  Level FlightAware
Mon 08:42:58 AM 38.9960 22.7110 138° Southeast 531 611 37,000  Level FlightAware
Mon 08:43:43 AM 38.8570 22.8690 138° Southeast 534 615 37,000  Level FlightAware
Mon 08:44:23 AM 38.7830 22.9540 138° Southeast 536 617 37,000  Level FlightAware
Mon 08:45:06 AM 38.7120 23.0340 139° Southeast 536 617 37,000  Level FlightAware
Mon 08:45:43 AM 38.6630 23.0890 139° Southeast 536 617 37,000  Level FlightAware
Mon 08:46:29 AM 38.5490 23.2180 138° Southeast 537 618 37,000  Level FlightAware
Mon 08:47:11 AM 38.4690 23.3080 139° Southeast 539 620 37,000  Level FlightAware
Mon 08:47:56 AM 38.3840 23.4020 139° Southeast 539 620 37,000  Level FlightAware
Mon 08:48:37 AM 38.3080 23.4870 139° Southeast 541 623 37,000  Level FlightAware
Mon 08:49:21 AM 38.2250 23.5790 139° Southeast 542 624 37,000  Level FlightAware
Mon 08:50:00 AM 38.1500 23.6620 139° Southeast 545 627 37,000  Level FlightAware
Mon 08:50:43 AM 38.0680 23.7520 139° Southeast 548 631 37,000  Level FlightAware
Mon 08:51:25 AM 37.9980 23.8550 131° Southeast 559 643 37,000  Level FlightAware
Mon 08:52:07 AM 37.9360 23.9720 124° Southeast 566 651 37,000  Level FlightAware
Mon 08:52:47 AM 37.8800 24.0840 122° Southeast 566 651 37,000  Level FlightAware
Mon 08:53:32 AM 37.8160 24.2100 123° Southeast 568 654 37,000  Level FlightAware
Mon 08:54:13 AM 37.7580 24.3230 123° Southeast 569 655 37,000  Level FlightAware
Mon 08:54:57 AM 37.6950 24.4440 123° Southeast 570 656 37,000  Level FlightAware
Mon 08:55:38 AM 37.6340 24.5600 124° Southeast 570 656 37,000  Level FlightAware
Mon 08:56:19 AM 37.5750 24.6720 124° Southeast 572 658 37,000  Level FlightAware
Mon 08:57:03 AM 37.5100 24.7950 124° Southeast 573 659 37,000  Level FlightAware
Mon 08:57:43 AM 37.4510 24.9070 124° Southeast 573 659 37,000  Level FlightAware
Mon 08:58:25 AM 37.3890 25.0240 124° Southeast 573 659 37,000  Level FlightAware
Mon 08:59:07 AM 37.3280 25.1390 124° Southeast 572 658 37,000  Level FlightAware
Mon 08:59:47 AM 37.2700 25.2500 123° Southeast 571 657 37,000  Level FlightAware
Mon 09:00:32 AM 37.2050 25.3720 124° Southeast 570 656 37,000  Level FlightAware
Mon 09:01:13 AM 37.1450 25.4850 124° Southeast 570 656 37,000  Level FlightAware
Mon 09:01:51 AM 37.0890 25.5890 124° Southeast 570 656 37,000  Level FlightAware
Mon 09:02:37 AM 37.0210 25.7150 124° Southeast 570 656 37,000  Level FlightAware
Mon 09:03:19 AM 36.9580 25.8320 124° Southeast 569 655 37,000  Level FlightAware
Mon 09:03:59 AM 36.9000 25.9390 124° Southeast 569 655 37,000  Level FlightAware
Mon 09:04:42 AM 36.8380 26.0550 124° Southeast 569 655 37,000  Level FlightAware
Mon 09:05:24 AM 36.7750 26.1710 124° Southeast 569 655 37,000  Level FlightAware
Mon 09:06:08 AM 36.7100 26.2900 124° Southeast 570 656 37,000  Level FlightAware
Mon 09:06:49 AM 36.6480 26.4040 124° Southeast 570 656 37,000  Level FlightAware
Mon 09:07:31 AM 36.5860 26.5160 125° Southeast 569 655 37,000  Level FlightAware
Mon 09:08:13 AM 36.5220 26.6320 124° Southeast 569 655 37,000  Level FlightAware
Mon 09:08:52 AM 36.4680 26.7310 124° Southeast 569 655 37,000  Level FlightAware
Mon 09:09:38 AM 36.3990 26.8550 125° Southeast 569 655 37,000  Level FlightAware
Mon 09:10:16 AM 36.3430 26.9580 124° Southeast 568 654 37,000  Level FlightAware
Mon 09:11:13 AM 36.2570 27.1130 124° Southeast 568 654 37,000  Level FlightAware
Mon 09:11:56 AM 36.1970 27.2210 125° Southeast 568 654 37,000  Level FlightAware
Mon 09:12:38 AM 36.1390 27.3250 125° Southeast 568 654 37,000  Level FlightAware
Mon 09:13:15 AM 36.0800 27.4310 125° Southeast 566 651 37,000  Level FlightAware
Mon 09:14:03 AM 36.0200 27.5410 124° Southeast 566 651 37,000  Level FlightAware
Mon 09:14:41 AM 35.9730 27.6270 124° Southeast 566 651 37,000  Level FlightAware
Mon 09:15:29 AM 35.9130 27.7370 124° Southeast 566 651 37,000  Level FlightAware
Mon 09:16:02 AM 35.8250 27.8810 127° Southeast 562 647 37,000  Level FlightAware
Mon 09:16:53 AM 35.7500 28.0150 125° Southeast 560 644 37,000  Level FlightAware
Mon 09:17:31 AM 35.6950 28.1110 125° Southeast 559 643 37,000  Level FlightAware
Mon 09:18:16 AM 35.6240 28.2340 125° Southeast 560 644 37,000  Level FlightAware
Mon 09:19:01 AM 35.5590 28.3490 125° Southeast 560 644 37,000  Level FlightAware
Mon 09:19:41 AM 35.4990 28.4530 125° Southeast 560 644 37,000  Level FlightAware
Mon 09:20:23 AM 35.4360 28.5630 125° Southeast 561 646 37,000  Level FlightAware
Mon 09:21:03 AM 35.3760 28.6660 126° Southeast 561 646 37,000  Level FlightAware
Mon 09:21:47 AM 35.3100 28.7810 125° Southeast 561 646 37,000  Level FlightAware
Mon 09:22:27 AM 35.2500 28.8840 125° Southeast 561 646 37,000  Level FlightAware
Mon 09:23:11 AM 35.1830 28.9990 125° Southeast 560 644 37,000  Level FlightAware
Mon 09:23:51 AM 35.1250 29.1000 125° Southeast 559 643 37,000  Level FlightAware
Mon 09:24:30 AM 35.0680 29.1970 126° Southeast 557 641 37,000  Level FlightAware
Mon 09:25:19 AM 35.0060 29.3050 125° Southeast 557 641 37,000  Level FlightAware
Mon 09:25:55 AM 34.9610 29.3840 125° Southeast 557 641 37,000  Level FlightAware
Mon 09:26:36 AM 34.8780 29.5200 127° Southeast 555 639 37,000  Level FlightAware
Mon 09:27:21 AM 34.8110 29.6340 126° Southeast 555 639 37,000  Level FlightAware
Mon 09:28:06 AM 34.7480 29.7410 126° Southeast 555 639 37,000  Level FlightAware
Mon 09:28:41 AM 34.6960 29.8420 122° Southeast 559 643 37,000  Level FlightAware
Mon 09:29:37 AM 34.6280 29.9870 120° Southeast 559 643 37,000  Level FlightAware
Mon 09:30:17 AM 34.5760 30.0980 120° Southeast 540 621 37,000  Level FlightAware
Mon 09:31:07 AM 34.5140 30.2300 120° Southeast 535 616 37,000  Level FlightAware
Mon 09:31:47 AM 34.4620 30.3390 120° Southeast 537 618 37,000  Level FlightAware
Mon 09:32:24 AM 34.4160 30.4340 120° Southeast 535 616 37,000  Level FlightAware
Mon 09:33:09 AM 34.3590 30.5500 121° Southeast 535 616 37,000  Level FlightAware
Mon 09:33:54 AM 34.3030 30.6660 120° Southeast 530 610 37,000  Level FlightAware
Mon 09:34:34 AM 34.2520 30.7700 121° Southeast 528 608 37,000  Level FlightAware
Mon 09:35:15 AM 34.2040 30.8690 120° Southeast 523 602 37,000  Level FlightAware
Mon 09:35:55 AM 34.1520 30.9750 121° Southeast 520 598 37,000  Level FlightAware
Mon 09:36:41 AM 34.0950 31.0900 121° Southeast 517 595 37,000  Level FlightAware
Mon 09:37:26 AM 34.0410 31.2020 120° Southeast 514 592 37,000  Level FlightAware
Mon 09:38:06 AM 33.9910 31.3030 121° Southeast 512 589 37,000  Level FlightAware
Mon 09:38:46 AM 33.9430 31.4000 121° Southeast 512 589 37,000  Level FlightAware
Mon 09:39:27 AM 33.8940 31.4990 121° Southeast 509 586 37,000  Level FlightAware
Mon 09:40:12 AM 33.8380 31.6120 121° Southeast 507 583 37,000  Level FlightAware
Mon 09:40:54 AM 33.7890 31.7100 121° Southeast 505 581 37,000  Level FlightAware
Mon 09:41:36 AM 33.7400 31.8090 121° Southeast 505 581 37,000  Level FlightAware
Mon 09:42:15 AM 33.6910 31.9060 121° Southeast 505 581 37,000  Level FlightAware
Mon 09:43:00 AM 33.6370 32.0130 121° Southeast 504 580 37,000  Level FlightAware
Mon 09:43:30 AM 33.6030 32.0800 121° Southeast 504 580 37,000  Level FlightAware
Mon 09:44:12 AM 33.5500 32.1860 121° Southeast 503 579 37,000  Level FlightAware
Mon 09:44:53 AM 33.4990 32.2860 121° Southeast 506 582 37,000  Level FlightAware
Mon 09:45:29 AM 33.4590 32.3640 122° Southeast 502 578 37,000 -900 Level FlightAware
Mon 09:46:13 AM 33.4060 32.4690 121° Southeast 513 590 35,800 -1,379 Descending FlightAware
Mon 09:46:56 AM 33.3720 32.5340 122° Southeast 529 609 35,000 -1,172 Descending FlightAware
Mon 09:47:40 AM 33.2880 32.6990 121° Southeast 532 612 34,100 -1,394 Descending FlightAware
Mon 09:48:35 AM 33.2200 32.8310 122° Southeast 523 602 32,700 -1,784 Descending FlightAware
Mon 09:49:31 AM 33.1550 32.9550 122° Southeast 513 590 30,800 -2,327 Descending FlightAware
Mon 09:50:13 AM 33.0950 33.0700 122° Southeast 504 580 28,900 -2,458 Descending FlightAware
Mon 09:50:54 AM 33.0450 33.1660 122° Southeast 494 568 27,400 -2,195 Descending FlightAware
Mon 09:51:35 AM 32.9970 33.2580 122° Southeast 480 552 25,900 -2,175 Descending FlightAware
Mon 09:52:14 AM 32.9500 33.3460 122° Southeast 463 533 24,500 -2,069 Descending FlightAware
Mon 09:53:02 AM 32.8970 33.4470 122° Southeast 439 505 22,900 -1,955 Descending FlightAware
Mon 09:53:43 AM 32.8550 33.5270 122° Southeast 411 473 21,600 -1,807 Descending FlightAware
Mon 09:54:25 AM 32.8130 33.6060 122° Southeast 395 455 20,400 -1,714 Descending FlightAware
Mon 09:55:07 AM 32.7720 33.6830 122° Southeast 386 444 19,200 -1,735 Descending FlightAware
Mon 09:55:48 AM 32.7330 33.7560 122° Southeast 377 434 18,000 -1,705 Descending FlightAware
Mon 09:56:35 AM 32.6900 33.8350 123° Southeast 368 423 16,700 -1,793 Descending FlightAware
Mon 09:57:15 AM 32.6540 33.9030 122° Southeast 348 400 15,400 -1,926 Descending FlightAware
Mon 09:57:56 AM 32.6190 33.9670 123° Southeast 332 382 14,100 -1,537 Descending FlightAware
Mon 09:58:37 AM 32.5910 34.0180 123° Southeast 325 374 13,300 -1,301 Descending FlightAware
Mon 09:59:19 AM 32.5540 34.0880 122° Southeast 315 362 12,300 -1,429 Descending FlightAware
Mon 10:00:01 AM 32.5200 34.1490 123° Southeast 309 356 11,300 -1,412 Descending FlightAware
Mon 10:00:44 AM 32.4780 34.2050 132° Southeast 302 348 10,300 -1,233 Descending FlightAware
Mon 10:01:14 AM 32.4480 34.2400 135° Southeast 292 336 9,800 -600 Descending FlightAware
Mon 10:01:54 AM 32.4150 34.2790 135° Southeast 287 330 9,600 -1,183 Descending FlightAware
Mon 10:02:25 AM 32.3820 34.3160 137° Southeast 280 322 8,400 -1,292 Descending FlightAware
Mon 10:02:59 AM 32.3540 34.3480 136° Southeast 280 322 8,200 -261 Descending FlightAware
Mon 10:03:11 AM 32.3450 34.3590 134° Southeast 280 322 8,200  Level FlightAware
Mon 10:03:48 AM 32.3160 34.3930 135° Southeast 280 322 8,200  Level FlightAware
Mon 10:04:00 AM 32.3070 34.4040 134° Southeast 280 322 8,200  Level FlightAware
Mon 10:04:25 AM 32.2870 34.4270 136° Southeast 280 322 8,200  Level FlightAware
Mon 10:07:00 AM 32.0535 34.7746 115° Southeast  Level FlightAware
Mon 10:08:00 AM 32.0000 34.8667 125° Southeast  Level FlightAware
Mon 10:09:00 AM 32.0095 34.8769 125° Southeast  Level Estimated
Mon 10:10:00 AM 32.0095 34.8769 125° Southeast  Level Estimated
Mon 10:11:00 AM 32.0095 34.8769 125° Southeast  Level Estimated
Mon 10:12:00 AM 32.0095 34.8769 125° Southeast  Level Estimated
Mon 10:13:00 AM 32.0095 34.8769 125° Southeast  Level Estimated
Mon 10:14:00 AM 32.0095 34.8769 125° Southeast  Level Estimated
Mon 10:15:00 AM 32.0095 34.8769 125° Southeast  Level Estimated
Mon 10:16:00 AM 32.0095 34.8769 125° Southeast  Level Estimated

Login

Don't have an account? Register now (free) for customized features, flight alerts, and more!